sensor_id;sensor_type;location;lat;lon;timestamp;P1;durP1;ratioP1;P2;durP2;ratioP2
76712;SDS011;65640;43.154;25.658;2023-02-22T00:00:24;6.97;;;2.78;;
76712;SDS011;65640;43.154;25.658;2023-02-22T00:03:07;4.10;;;2.60;;
76712;SDS011;65640;43.154;25.658;2023-02-22T00:05:39;4.25;;;2.88;;
76712;SDS011;65640;43.154;25.658;2023-02-22T00:08:09;3.30;;;3.00;;
76712;SDS011;65640;43.154;25.658;2023-02-22T00:10:35;3.60;;;3.30;;
76712;SDS011;65640;43.154;25.658;2023-02-22T00:13:03;3.00;;;2.58;;
76712;SDS011;65640;43.154;25.658;2023-02-22T00:15:32;1.95;;;1.83;;
76712;SDS011;65640;43.154;25.658;2023-02-22T00:17:57;2.00;;;1.80;;
76712;SDS011;65640;43.154;25.658;2023-02-22T00:20:23;12.85;;;2.30;;
76712;SDS011;65640;43.154;25.658;2023-02-22T00:22:49;3.10;;;1.90;;
76712;SDS011;65640;43.154;25.658;2023-02-22T00:25:17;2.25;;;2.05;;
76712;SDS011;65640;43.154;25.658;2023-02-22T00:27:46;2.10;;;1.90;;
76712;SDS011;65640;43.154;25.658;2023-02-22T00:30:17;2.75;;;2.53;;
76712;SDS011;65640;43.154;25.658;2023-02-22T00:32:45;4.45;;;1.83;;
76712;SDS011;65640;43.154;25.658;2023-02-22T00:35:11;2.50;;;1.85;;
76712;SDS011;65640;43.154;25.658;2023-02-22T00:37:38;2.10;;;2.00;;
76712;SDS011;65640;43.154;25.658;2023-02-22T00:40:09;2.47;;;1.75;;
76712;SDS011;65640;43.154;25.658;2023-02-22T00:42:38;2.63;;;2.10;;
76712;SDS011;65640;43.154;25.658;2023-02-22T00:45:04;2.38;;;1.70;;
76712;SDS011;65640;43.154;25.658;2023-02-22T00:47:30;3.35;;;1.70;;
76712;SDS011;65640;43.154;25.658;2023-02-22T00:49:56;4.60;;;2.15;;
76712;SDS011;65640;43.154;25.658;2023-02-22T00:52:21;3.50;;;2.53;;
76712;SDS011;65640;43.154;25.658;2023-02-22T00:54:46;3.97;;;2.10;;
76712;SDS011;65640;43.154;25.658;2023-02-22T00:57:12;2.42;;;1.88;;
76712;SDS011;65640;43.154;25.658;2023-02-22T00:59:37;2.28;;;1.90;;
76712;SDS011;65640;43.154;25.658;2023-02-22T01:02:03;2.30;;;2.10;;
76712;SDS011;65640;43.154;25.658;2023-02-22T01:04:28;3.85;;;2.35;;
76712;SDS011;65640;43.154;25.658;2023-02-22T01:06:54;3.88;;;2.50;;
76712;SDS011;65640;43.154;25.658;2023-02-22T01:09:20;3.00;;;2.60;;
76712;SDS011;65640;43.154;25.658;2023-02-22T01:11:46;4.93;;;2.50;;
76712;SDS011;65640;43.154;25.658;2023-02-22T01:14:12;1.88;;;1.75;;
76712;SDS011;65640;43.154;25.658;2023-02-22T01:16:38;3.35;;;2.92;;
76712;SDS011;65640;43.154;25.658;2023-02-22T01:19:03;2.28;;;2.08;;
76712;SDS011;65640;43.154;25.658;2023-02-22T01:21:30;5.07;;;3.13;;
76712;SDS011;65640;43.154;25.658;2023-02-22T01:23:56;4.82;;;2.67;;
76712;SDS011;65640;43.154;25.658;2023-02-22T01:26:21;2.33;;;2.13;;
76712;SDS011;65640;43.154;25.658;2023-02-22T01:28:47;2.40;;;2.17;;
76712;SDS011;65640;43.154;25.658;2023-02-22T01:31:12;2.75;;;2.35;;
76712;SDS011;65640;43.154;25.658;2023-02-22T01:33:38;5.15;;;1.95;;
76712;SDS011;65640;43.154;25.658;2023-02-22T01:36:04;2.83;;;2.20;;
76712;SDS011;65640;43.154;25.658;2023-02-22T01:38:35;3.90;;;1.73;;
76712;SDS011;65640;43.154;25.658;2023-02-22T01:41:01;6.15;;;3.15;;
76712;SDS011;65640;43.154;25.658;2023-02-22T01:43:29;7.38;;;3.13;;
76712;SDS011;65640;43.154;25.658;2023-02-22T01:46:00;2.95;;;2.42;;
76712;SDS011;65640;43.154;25.658;2023-02-22T01:51:01;3.17;;;1.92;;
76712;SDS011;65640;43.154;25.658;2023-02-22T01:53:36;3.30;;;2.13;;
76712;SDS011;65640;43.154;25.658;2023-02-22T01:56:05;2.97;;;2.30;;
76712;SDS011;65640;43.154;25.658;2023-02-22T01:58:32;2.90;;;2.10;;
76712;SDS011;65640;43.154;25.658;2023-02-22T02:01:00;4.82;;;2.28;;
76712;SDS011;65640;43.154;25.658;2023-02-22T02:03:27;2.40;;;2.20;;
76712;SDS011;65640;43.154;25.658;2023-02-22T02:05:55;2.55;;;2.35;;
76712;SDS011;65640;43.154;25.658;2023-02-22T02:08:30;4.13;;;1.80;;
76712;SDS011;65640;43.154;25.658;2023-02-22T02:11:00;2.15;;;1.90;;
76712;SDS011;65640;43.154;25.658;2023-02-22T02:13:28;2.38;;;2.17;;
76712;SDS011;65640;43.154;25.658;2023-02-22T02:15:54;2.08;;;1.98;;
76712;SDS011;65640;43.154;25.658;2023-02-22T02:18:20;2.50;;;2.30;;
76712;SDS011;65640;43.154;25.658;2023-02-22T02:40:44;2.58;;;2.00;;
76712;SDS011;65640;43.154;25.658;2023-02-22T02:48:34;2.97;;;1.98;;
76712;SDS011;65640;43.154;25.658;2023-02-22T02:51:04;2.15;;;1.80;;
76712;SDS011;65640;43.154;25.658;2023-02-22T02:53:33;2.08;;;1.55;;
76712;SDS011;65640;43.154;25.658;2023-02-22T02:56:01;2.35;;;2.10;;
76712;SDS011;65640;43.154;25.658;2023-02-22T02:58:27;5.72;;;3.25;;
76712;SDS011;65640;43.154;25.658;2023-02-22T03:00:54;2.55;;;2.35;;
76712;SDS011;65640;43.154;25.658;2023-02-22T03:12:25;2.70;;;2.20;;
76712;SDS011;65640;43.154;25.658;2023-02-22T03:14:41;2.20;;;1.80;;
76712;SDS011;65640;43.154;25.658;2023-02-22T03:19:47;4.00;;;2.13;;
76712;SDS011;65640;43.154;25.658;2023-02-22T03:22:21;2.95;;;2.20;;
76712;SDS011;65640;43.154;25.658;2023-02-22T03:27:36;2.42;;;2.22;;
76712;SDS011;65640;43.154;25.658;2023-02-22T03:30:09;2.80;;;2.60;;
76712;SDS011;65640;43.154;25.658;2023-02-22T03:32:40;2.88;;;2.42;;
76712;SDS011;65640;43.154;25.658;2023-02-22T03:35:20;2.70;;;2.22;;
76712;SDS011;65640;43.154;25.658;2023-02-22T03:37:52;2.10;;;1.90;;
76712;SDS011;65640;43.154;25.658;2023-02-22T03:40:22;2.10;;;1.90;;
76712;SDS011;65640;43.154;25.658;2023-02-22T03:42:53;1.77;;;1.67;;
76712;SDS011;65640;43.154;25.658;2023-02-22T03:45:36;2.97;;;1.73;;
76712;SDS011;65640;43.154;25.658;2023-02-22T03:48:13;2.35;;;1.55;;
76712;SDS011;65640;43.154;25.658;2023-02-22T03:50:40;1.90;;;1.55;;
76712;SDS011;65640;43.154;25.658;2023-02-22T03:53:06;1.63;;;1.52;;
76712;SDS011;65640;43.154;25.658;2023-02-22T03:55:32;2.10;;;1.58;;
76712;SDS011;65640;43.154;25.658;2023-02-22T03:57:59;2.30;;;1.80;;
76712;SDS011;65640;43.154;25.658;2023-02-22T04:00:30;4.00;;;1.80;;
76712;SDS011;65640;43.154;25.658;2023-02-22T04:02:57;3.33;;;1.70;;
76712;SDS011;65640;43.154;25.658;2023-02-22T04:05:23;2.80;;;1.88;;
76712;SDS011;65640;43.154;25.658;2023-02-22T04:07:50;5.13;;;2.03;;
76712;SDS011;65640;43.154;25.658;2023-02-22T04:10:16;8.23;;;2.90;;
76712;SDS011;65640;43.154;25.658;2023-02-22T04:12:42;6.45;;;3.00;;
76712;SDS011;65640;43.154;25.658;2023-02-22T04:15:08;6.13;;;3.45;;
76712;SDS011;65640;43.154;25.658;2023-02-22T04:17:35;4.10;;;3.15;;
76712;SDS011;65640;43.154;25.658;2023-02-22T04:20:01;5.30;;;2.42;;
76712;SDS011;65640;43.154;25.658;2023-02-22T04:22:27;2.70;;;2.10;;
76712;SDS011;65640;43.154;25.658;2023-02-22T04:24:53;2.80;;;2.33;;
76712;SDS011;65640;43.154;25.658;2023-02-22T04:27:18;3.50;;;2.53;;
76712;SDS011;65640;43.154;25.658;2023-02-22T04:29:44;5.68;;;2.70;;
76712;SDS011;65640;43.154;25.658;2023-02-22T04:32:09;2.28;;;2.08;;
76712;SDS011;65640;43.154;25.658;2023-02-22T04:34:34;5.18;;;2.28;;
76712;SDS011;65640;43.154;25.658;2023-02-22T04:37:00;3.58;;;2.15;;
76712;SDS011;65640;43.154;25.658;2023-02-22T04:39:26;2.65;;;2.15;;
76712;SDS011;65640;43.154;25.658;2023-02-22T04:41:51;4.95;;;2.20;;
76712;SDS011;65640;43.154;25.658;2023-02-22T04:44:16;4.75;;;2.25;;
76712;SDS011;65640;43.154;25.658;2023-02-22T04:46:42;6.50;;;2.85;;
76712;SDS011;65640;43.154;25.658;2023-02-22T04:49:07;5.80;;;3.17;;
76712;SDS011;65640;43.154;25.658;2023-02-22T04:51:33;7.70;;;3.50;;
76712;SDS011;65640;43.154;25.658;2023-02-22T04:56:25;18.33;;;6.18;;
76712;SDS011;65640;43.154;25.658;2023-02-22T04:58:50;23.00;;;9.50;;
76712;SDS011;65640;43.154;25.658;2023-02-22T05:01:16;30.23;;;12.25;;
76712;SDS011;65640;43.154;25.658;2023-02-22T05:03:41;22.02;;;9.25;;
76712;SDS011;65640;43.154;25.658;2023-02-22T05:06:07;15.98;;;7.82;;
76712;SDS011;65640;43.154;25.658;2023-02-22T05:08:33;10.38;;;6.30;;
76712;SDS011;65640;43.154;25.658;2023-02-22T05:10:59;6.50;;;4.70;;
76712;SDS011;65640;43.154;25.658;2023-02-22T05:13:24;9.57;;;4.35;;
76712;SDS011;65640;43.154;25.658;2023-02-22T05:15:50;13.27;;;5.63;;
76712;SDS011;65640;43.154;25.658;2023-02-22T05:18:16;11.48;;;5.18;;
76712;SDS011;65640;43.154;25.658;2023-02-22T05:20:41;7.65;;;4.53;;
76712;SDS011;65640;43.154;25.658;2023-02-22T05:23:07;13.27;;;9.00;;
76712;SDS011;65640;43.154;25.658;2023-02-22T05:25:32;17.75;;;12.05;;
76712;SDS011;65640;43.154;25.658;2023-02-22T05:28:03;14.95;;;8.88;;
76712;SDS011;65640;43.154;25.658;2023-02-22T05:30:33;8.82;;;6.68;;
76712;SDS011;65640;43.154;25.658;2023-02-22T05:33:00;9.68;;;5.32;;
76712;SDS011;65640;43.154;25.658;2023-02-22T05:35:27;7.20;;;6.50;;
76712;SDS011;65640;43.154;25.658;2023-02-22T05:37:53;10.85;;;6.10;;
76712;SDS011;65640;43.154;25.658;2023-02-22T05:40:19;8.63;;;6.47;;
76712;SDS011;65640;43.154;25.658;2023-02-22T05:42:50;8.93;;;6.63;;
76712;SDS011;65640;43.154;25.658;2023-02-22T05:45:18;6.82;;;5.45;;
76712;SDS011;65640;43.154;25.658;2023-02-22T05:47:44;11.05;;;5.90;;
76712;SDS011;65640;43.154;25.658;2023-02-22T05:50:10;11.35;;;5.38;;
76712;SDS011;65640;43.154;25.658;2023-02-22T05:52:36;12.90;;;6.10;;
76712;SDS011;65640;43.154;25.658;2023-02-22T05:55:03;10.98;;;5.65;;
76712;SDS011;65640;43.154;25.658;2023-02-22T05:57:29;8.65;;;5.53;;
76712;SDS011;65640;43.154;25.658;2023-02-22T05:59:54;12.75;;;9.65;;
76712;SDS011;65640;43.154;25.658;2023-02-22T06:02:20;63.67;;;8.45;;
76712;SDS011;65640;43.154;25.658;2023-02-22T06:04:45;5.50;;;4.30;;
76712;SDS011;65640;43.154;25.658;2023-02-22T06:07:12;10.52;;;6.95;;
76712;SDS011;65640;43.154;25.658;2023-02-22T06:09:38;10.85;;;6.90;;
76712;SDS011;65640;43.154;25.658;2023-02-22T06:12:03;10.93;;;6.35;;
76712;SDS011;65640;43.154;25.658;2023-02-22T06:14:29;10.55;;;7.68;;
76712;SDS011;65640;43.154;25.658;2023-02-22T06:16:55;16.20;;;7.32;;
76712;SDS011;65640;43.154;25.658;2023-02-22T06:21:48;6.25;;;4.95;;
76712;SDS011;65640;43.154;25.658;2023-02-22T06:24:17;9.38;;;5.07;;
76712;SDS011;65640;43.154;25.658;2023-02-22T06:26:43;12.43;;;6.30;;
76712;SDS011;65640;43.154;25.658;2023-02-22T06:29:08;9.50;;;5.88;;
76712;SDS011;65640;43.154;25.658;2023-02-22T06:31:33;15.75;;;10.18;;
76712;SDS011;65640;43.154;25.658;2023-02-22T06:33:59;6.65;;;5.75;;
76712;SDS011;65640;43.154;25.658;2023-02-22T06:36:25;7.22;;;4.40;;
76712;SDS011;65640;43.154;25.658;2023-02-22T06:38:50;7.35;;;4.38;;
76712;SDS011;65640;43.154;25.658;2023-02-22T06:41:16;5.95;;;4.70;;
76712;SDS011;65640;43.154;25.658;2023-02-22T06:43:41;16.00;;;6.13;;
76712;SDS011;65640;43.154;25.658;2023-02-22T06:46:10;8.95;;;6.20;;
76712;SDS011;65640;43.154;25.658;2023-02-22T06:48:36;11.00;;;6.32;;
76712;SDS011;65640;43.154;25.658;2023-02-22T06:51:03;14.45;;;9.07;;
76712;SDS011;65640;43.154;25.658;2023-02-22T06:53:28;21.40;;;12.35;;
76712;SDS011;65640;43.154;25.658;2023-02-22T06:55:54;13.82;;;8.82;;
76712;SDS011;65640;43.154;25.658;2023-02-22T06:58:19;9.23;;;7.00;;
76712;SDS011;65640;43.154;25.658;2023-02-22T07:00:45;8.35;;;6.05;;
76712;SDS011;65640;43.154;25.658;2023-02-22T07:03:10;9.00;;;5.82;;
76712;SDS011;65640;43.154;25.658;2023-02-22T07:05:36;5.32;;;3.38;;
76712;SDS011;65640;43.154;25.658;2023-02-22T07:08:06;2.45;;;2.05;;
76712;SDS011;65640;43.154;25.658;2023-02-22T07:10:32;4.00;;;2.28;;
76712;SDS011;65640;43.154;25.658;2023-02-22T07:12:59;3.92;;;2.38;;
76712;SDS011;65640;43.154;25.658;2023-02-22T07:15:25;4.50;;;2.60;;
76712;SDS011;65640;43.154;25.658;2023-02-22T07:17:52;2.83;;;2.28;;
76712;SDS011;65640;43.154;25.658;2023-02-22T07:20:18;2.35;;;2.13;;
76712;SDS011;65640;43.154;25.658;2023-02-22T07:22:45;3.88;;;2.30;;
76712;SDS011;65640;43.154;25.658;2023-02-22T07:25:11;3.90;;;2.20;;
76712;SDS011;65640;43.154;25.658;2023-02-22T07:27:37;2.45;;;2.25;;
76712;SDS011;65640;43.154;25.658;2023-02-22T07:30:05;2.47;;;2.00;;
76712;SDS011;65640;43.154;25.658;2023-02-22T07:32:32;4.18;;;2.40;;
76712;SDS011;65640;43.154;25.658;2023-02-22T07:34:57;3.45;;;1.83;;
76712;SDS011;65640;43.154;25.658;2023-02-22T07:37:23;2.60;;;2.40;;
76712;SDS011;65640;43.154;25.658;2023-02-22T07:39:48;3.08;;;2.28;;
76712;SDS011;65640;43.154;25.658;2023-02-22T07:42:13;2.80;;;2.38;;
76712;SDS011;65640;43.154;25.658;2023-02-22T07:44:39;4.25;;;1.83;;
76712;SDS011;65640;43.154;25.658;2023-02-22T07:47:04;2.45;;;2.25;;
76712;SDS011;65640;43.154;25.658;2023-02-22T07:49:31;2.92;;;2.33;;
76712;SDS011;65640;43.154;25.658;2023-02-22T07:51:56;6.07;;;2.17;;
76712;SDS011;65640;43.154;25.658;2023-02-22T07:54:22;2.60;;;1.95;;
76712;SDS011;65640;43.154;25.658;2023-02-22T07:56:47;2.42;;;2.20;;
76712;SDS011;65640;43.154;25.658;2023-02-22T07:59:13;4.85;;;2.05;;
76712;SDS011;65640;43.154;25.658;2023-02-22T08:01:39;3.08;;;1.35;;
76712;SDS011;65640;43.154;25.658;2023-02-22T08:04:05;2.60;;;1.83;;
76712;SDS011;65640;43.154;25.658;2023-02-22T08:06:30;1.40;;;1.30;;
76712;SDS011;65640;43.154;25.658;2023-02-22T08:08:56;1.70;;;1.60;;
76712;SDS011;65640;43.154;25.658;2023-02-22T08:11:22;1.58;;;1.48;;
76712;SDS011;65640;43.154;25.658;2023-02-22T08:13:48;1.35;;;1.13;;
76712;SDS011;65640;43.154;25.658;2023-02-22T08:16:14;2.33;;;1.90;;
76712;SDS011;65640;43.154;25.658;2023-02-22T08:18:39;1.10;;;1.05;;
76712;SDS011;65640;43.154;25.658;2023-02-22T08:21:05;2.00;;;1.10;;
76712;SDS011;65640;43.154;25.658;2023-02-22T08:23:30;3.13;;;1.60;;
76712;SDS011;65640;43.154;25.658;2023-02-22T08:26:02;2.08;;;1.35;;
76712;SDS011;65640;43.154;25.658;2023-02-22T08:28:32;0.90;;;0.90;;
76712;SDS011;65640;43.154;25.658;2023-02-22T08:30:58;2.17;;;1.42;;
76712;SDS011;65640;43.154;25.658;2023-02-22T08:33:23;3.55;;;1.40;;
76712;SDS011;65640;43.154;25.658;2023-02-22T08:35:49;2.35;;;1.10;;
76712;SDS011;65640;43.154;25.658;2023-02-22T08:40:51;1.90;;;1.67;;
76712;SDS011;65640;43.154;25.658;2023-02-22T08:43:17;1.65;;;1.30;;
76712;SDS011;65640;43.154;25.658;2023-02-22T08:45:44;3.30;;;1.10;;
76712;SDS011;65640;43.154;25.658;2023-02-22T08:48:10;4.10;;;1.33;;
76712;SDS011;65640;43.154;25.658;2023-02-22T08:50:38;2.88;;;1.15;;
76712;SDS011;65640;43.154;25.658;2023-02-22T08:53:05;3.38;;;1.40;;
76712;SDS011;65640;43.154;25.658;2023-02-22T08:55:34;2.83;;;1.60;;
76712;SDS011;65640;43.154;25.658;2023-02-22T08:58:02;2.40;;;1.20;;
76712;SDS011;65640;43.154;25.658;2023-02-22T09:00:30;1.15;;;1.05;;
76712;SDS011;65640;43.154;25.658;2023-02-22T09:02:57;1.92;;;1.23;;
76712;SDS011;65640;43.154;25.658;2023-02-22T09:05:24;1.65;;;1.10;;
76712;SDS011;65640;43.154;25.658;2023-02-22T09:07:50;2.33;;;1.25;;
76712;SDS011;65640;43.154;25.658;2023-02-22T09:10:16;1.20;;;1.10;;
76712;SDS011;65640;43.154;25.658;2023-02-22T09:12:43;0.80;;;0.80;;
76712;SDS011;65640;43.154;25.658;2023-02-22T09:15:09;1.45;;;1.23;;
76712;SDS011;65640;43.154;25.658;2023-02-22T09:17:35;1.23;;;1.10;;
76712;SDS011;65640;43.154;25.658;2023-02-22T09:20:02;1.75;;;1.25;;
76712;SDS011;65640;43.154;25.658;2023-02-22T09:22:28;3.72;;;1.10;;
76712;SDS011;65640;43.154;25.658;2023-02-22T09:24:53;1.08;;;0.98;;
76712;SDS011;65640;43.154;25.658;2023-02-22T09:27:19;2.28;;;1.08;;
76712;SDS011;65640;43.154;25.658;2023-02-22T09:29:46;1.02;;;0.95;;
76712;SDS011;65640;43.154;25.658;2023-02-22T09:32:12;2.42;;;1.23;;
76712;SDS011;65640;43.154;25.658;2023-02-22T09:34:41;1.25;;;1.13;;
76712;SDS011;65640;43.154;25.658;2023-02-22T09:37:10;1.20;;;1.10;;
76712;SDS011;65640;43.154;25.658;2023-02-22T09:39:36;1.92;;;1.50;;
76712;SDS011;65640;43.154;25.658;2023-02-22T09:47:23;1.33;;;0.85;;
76712;SDS011;65640;43.154;25.658;2023-02-22T09:52:40;1.17;;;0.95;;
76712;SDS011;65640;43.154;25.658;2023-02-22T09:58:31;1.15;;;0.88;;
76712;SDS011;65640;43.154;25.658;2023-02-22T10:09:19;0.98;;;0.52;;
76712;SDS011;65640;43.154;25.658;2023-02-22T10:12:01;0.70;;;0.70;;
76712;SDS011;65640;43.154;25.658;2023-02-22T10:19:59;0.90;;;0.90;;
76712;SDS011;65640;43.154;25.658;2023-02-22T10:22:46;0.70;;;0.70;;
76712;SDS011;65640;43.154;25.658;2023-02-22T10:25:26;0.90;;;0.70;;
76712;SDS011;65640;43.154;25.658;2023-02-22T10:28:01;1.05;;;0.90;;
76712;SDS011;65640;43.154;25.658;2023-02-22T10:30:45;0.63;;;0.63;;
76712;SDS011;65640;43.154;25.658;2023-02-22T10:33:23;0.93;;;0.55;;
76712;SDS011;65640;43.154;25.658;2023-02-22T10:35:54;0.70;;;0.70;;
76712;SDS011;65640;43.154;25.658;2023-02-22T10:38:31;0.88;;;0.50;;
76712;SDS011;65640;43.154;25.658;2023-02-22T10:41:02;2.97;;;0.98;;
76712;SDS011;65640;43.154;25.658;2023-02-22T10:43:30;0.77;;;0.68;;
76712;SDS011;65640;43.154;25.658;2023-02-22T10:45:59;2.67;;;0.70;;
76712;SDS011;65640;43.154;25.658;2023-02-22T10:48:27;2.25;;;0.90;;
76712;SDS011;65640;43.154;25.658;2023-02-22T10:50:58;0.82;;;0.60;;
76712;SDS011;65640;43.154;25.658;2023-02-22T10:53:26;0.70;;;0.70;;
76712;SDS011;65640;43.154;25.658;2023-02-22T10:58:38;1.73;;;0.52;;
76712;SDS011;65640;43.154;25.658;2023-02-22T11:04:04;0.90;;;0.90;;
76712;SDS011;65640;43.154;25.658;2023-02-22T11:06:35;3.95;;;0.70;;
76712;SDS011;65640;43.154;25.658;2023-02-22T11:09:05;0.63;;;0.63;;
76712;SDS011;65640;43.154;25.658;2023-02-22T11:11:36;0.60;;;0.60;;
76712;SDS011;65640;43.154;25.658;2023-02-22T11:14:02;0.70;;;0.70;;
76712;SDS011;65640;43.154;25.658;2023-02-22T11:19:17;0.70;;;0.70;;
76712;SDS011;65640;43.154;25.658;2023-02-22T11:21:45;0.50;;;0.50;;
76712;SDS011;65640;43.154;25.658;2023-02-22T11:24:15;0.73;;;0.50;;
76712;SDS011;65640;43.154;25.658;2023-02-22T11:29:14;1.20;;;0.40;;
76712;SDS011;65640;43.154;25.658;2023-02-22T11:31:44;1.15;;;0.80;;
76712;SDS011;65640;43.154;25.658;2023-02-22T11:40:20;1.23;;;0.90;;
76712;SDS011;65640;43.154;25.658;2023-02-22T11:42:46;1.73;;;1.00;;
76712;SDS011;65640;43.154;25.658;2023-02-22T11:53:25;3.40;;;1.00;;
76712;SDS011;65640;43.154;25.658;2023-02-22T12:09:15;3.60;;;1.20;;
76712;SDS011;65640;43.154;25.658;2023-02-22T12:14:46;2.95;;;1.45;;
76712;SDS011;65640;43.154;25.658;2023-02-22T12:17:41;1.38;;;1.13;;
76712;SDS011;65640;43.154;25.658;2023-02-22T12:20:22;3.92;;;1.55;;
76712;SDS011;65640;43.154;25.658;2023-02-22T12:25:19;1.40;;;1.10;;
76712;SDS011;65640;43.154;25.658;2023-02-22T12:27:56;1.90;;;1.50;;
76712;SDS011;65640;43.154;25.658;2023-02-22T12:30:30;2.83;;;1.10;;
76712;SDS011;65640;43.154;25.658;2023-02-22T12:32:59;1.67;;;1.25;;
76712;SDS011;65640;43.154;25.658;2023-02-22T12:35:29;3.53;;;1.50;;
76712;SDS011;65640;43.154;25.658;2023-02-22T12:40:55;2.72;;;1.33;;
76712;SDS011;65640;43.154;25.658;2023-02-22T12:43:42;2.35;;;1.65;;
76712;SDS011;65640;43.154;25.658;2023-02-22T12:46:17;3.60;;;1.85;;
76712;SDS011;65640;43.154;25.658;2023-02-22T12:48:59;1.92;;;1.20;;
76712;SDS011;65640;43.154;25.658;2023-02-22T12:57:07;2.65;;;1.50;;
76712;SDS011;65640;43.154;25.658;2023-02-22T12:59:55;1.48;;;1.20;;
76712;SDS011;65640;43.154;25.658;2023-02-22T13:02:27;1.33;;;1.23;;
76712;SDS011;65640;43.154;25.658;2023-02-22T13:04:56;2.65;;;1.30;;
76712;SDS011;65640;43.154;25.658;2023-02-22T13:10:17;2.00;;;1.17;;
76712;SDS011;65640;43.154;25.658;2023-02-22T13:26:08;2.53;;;2.10;;
76712;SDS011;65640;43.154;25.658;2023-02-22T13:28:43;2.10;;;1.90;;
76712;SDS011;65640;43.154;25.658;2023-02-22T13:42:22;1.88;;;1.75;;
76712;SDS011;65640;43.154;25.658;2023-02-22T13:47:57;2.28;;;2.08;;
76712;SDS011;65640;43.154;25.658;2023-02-22T13:52:48;1.85;;;1.75;;
76712;SDS011;65640;43.154;25.658;2023-02-22T13:55:21;2.85;;;1.85;;
76712;SDS011;65640;43.154;25.658;2023-02-22T13:57:58;2.17;;;1.75;;
76712;SDS011;65640;43.154;25.658;2023-02-22T14:11:01;2.17;;;1.90;;
76712;SDS011;65640;43.154;25.658;2023-02-22T14:16:28;4.10;;;2.05;;
76712;SDS011;65640;43.154;25.658;2023-02-22T14:19:02;2.22;;;1.77;;
76712;SDS011;65640;43.154;25.658;2023-02-22T14:21:30;6.10;;;2.20;;
76712;SDS011;65640;43.154;25.658;2023-02-22T14:24:12;5.25;;;2.47;;
76712;SDS011;65640;43.154;25.658;2023-02-22T14:26:40;1.98;;;1.77;;
76712;SDS011;65640;43.154;25.658;2023-02-22T14:29:20;3.10;;;1.90;;
76712;SDS011;65640;43.154;25.658;2023-02-22T14:41:55;5.85;;;1.90;;
76712;SDS011;65640;43.154;25.658;2023-02-22T14:44:27;4.65;;;1.90;;
76712;SDS011;65640;43.154;25.658;2023-02-22T14:46:57;2.13;;;1.70;;
76712;SDS011;65640;43.154;25.658;2023-02-22T14:49:29;1.92;;;1.63;;
76712;SDS011;65640;43.154;25.658;2023-02-22T14:52:01;1.65;;;1.52;;
76712;SDS011;65640;43.154;25.658;2023-02-22T14:54:35;6.90;;;1.92;;
76712;SDS011;65640;43.154;25.658;2023-02-22T14:57:29;2.30;;;2.05;;
76712;SDS011;65640;43.154;25.658;2023-02-22T15:00:16;2.22;;;2.03;;
76712;SDS011;65640;43.154;25.658;2023-02-22T15:02:46;4.10;;;1.90;;
76712;SDS011;65640;43.154;25.658;2023-02-22T15:05:14;7.47;;;2.08;;
76712;SDS011;65640;43.154;25.658;2023-02-22T15:08:17;2.97;;;1.60;;
76712;SDS011;65640;43.154;25.658;2023-02-22T15:13:14;1.98;;;1.65;;
76712;SDS011;65640;43.154;25.658;2023-02-22T15:15:45;2.00;;;1.90;;
76712;SDS011;65640;43.154;25.658;2023-02-22T15:20:52;2.10;;;1.80;;
76712;SDS011;65640;43.154;25.658;2023-02-22T15:23:29;3.13;;;2.53;;
76712;SDS011;65640;43.154;25.658;2023-02-22T15:26:05;5.93;;;2.85;;
76712;SDS011;65640;43.154;25.658;2023-02-22T15:28:31;4.82;;;2.30;;
76712;SDS011;65640;43.154;25.658;2023-02-22T15:31:13;2.30;;;2.10;;
76712;SDS011;65640;43.154;25.658;2023-02-22T15:33:47;2.10;;;1.67;;
76712;SDS011;65640;43.154;25.658;2023-02-22T15:36:17;4.20;;;1.80;;
76712;SDS011;65640;43.154;25.658;2023-02-22T15:38:47;3.05;;;1.73;;
76712;SDS011;65640;43.154;25.658;2023-02-22T15:41:31;2.13;;;1.60;;
76712;SDS011;65640;43.154;25.658;2023-02-22T15:44:02;2.00;;;1.77;;
76712;SDS011;65640;43.154;25.658;2023-02-22T15:46:32;2.15;;;1.73;;
76712;SDS011;65640;43.154;25.658;2023-02-22T15:49:05;3.13;;;2.10;;
76712;SDS011;65640;43.154;25.658;2023-02-22T15:51:31;2.30;;;2.13;;
76712;SDS011;65640;43.154;25.658;2023-02-22T15:53:59;1.83;;;1.70;;
76712;SDS011;65640;43.154;25.658;2023-02-22T15:56:27;5.50;;;2.35;;
76712;SDS011;65640;43.154;25.658;2023-02-22T15:59:10;2.88;;;2.53;;
76712;SDS011;65640;43.154;25.658;2023-02-22T16:01:39;3.83;;;2.63;;
76712;SDS011;65640;43.154;25.658;2023-02-22T16:04:06;2.65;;;2.45;;
76712;SDS011;65640;43.154;25.658;2023-02-22T16:06:44;4.45;;;2.22;;
76712;SDS011;65640;43.154;25.658;2023-02-22T16:11:39;4.53;;;2.50;;
76712;SDS011;65640;43.154;25.658;2023-02-22T16:19:37;11.10;;;3.50;;
76712;SDS011;65640;43.154;25.658;2023-02-22T16:22:06;7.00;;;3.45;;
76712;SDS011;65640;43.154;25.658;2023-02-22T16:27:43;9.40;;;6.70;;
76712;SDS011;65640;43.154;25.658;2023-02-22T16:32:41;10.45;;;5.47;;
76712;SDS011;65640;43.154;25.658;2023-02-22T16:35:07;14.00;;;7.15;;
76712;SDS011;65640;43.154;25.658;2023-02-22T16:37:42;7.20;;;5.70;;
76712;SDS011;65640;43.154;25.658;2023-02-22T16:40:30;11.50;;;6.97;;
76712;SDS011;65640;43.154;25.658;2023-02-22T16:43:02;6.07;;;4.18;;
76712;SDS011;65640;43.154;25.658;2023-02-22T16:45:30;5.72;;;3.92;;
76712;SDS011;65640;43.154;25.658;2023-02-22T16:47:57;7.25;;;3.40;;
76712;SDS011;65640;43.154;25.658;2023-02-22T16:50:23;4.95;;;4.13;;
76712;SDS011;65640;43.154;25.658;2023-02-22T16:52:48;32.83;;;15.77;;
76712;SDS011;65640;43.154;25.658;2023-02-22T16:55:16;55.35;;;24.38;;
76712;SDS011;65640;43.154;25.658;2023-02-22T16:57:42;109.53;;;43.65;;
76712;SDS011;65640;43.154;25.658;2023-02-22T17:00:16;117.80;;;52.00;;
76712;SDS011;65640;43.154;25.658;2023-02-22T17:02:45;124.78;;;48.40;;
76712;SDS011;65640;43.154;25.658;2023-02-22T17:05:12;67.40;;;30.45;;
76712;SDS011;65640;43.154;25.658;2023-02-22T17:07:39;53.67;;;26.05;;
76712;SDS011;65640;43.154;25.658;2023-02-22T17:12:31;58.13;;;25.83;;
76712;SDS011;65640;43.154;25.658;2023-02-22T17:14:57;50.78;;;24.55;;
76712;SDS011;65640;43.154;25.658;2023-02-22T17:17:22;52.92;;;24.40;;
76712;SDS011;65640;43.154;25.658;2023-02-22T17:19:48;74.97;;;31.40;;
76712;SDS011;65640;43.154;25.658;2023-02-22T17:22:17;66.63;;;26.92;;
76712;SDS011;65640;43.154;25.658;2023-02-22T17:24:45;71.40;;;29.15;;
76712;SDS011;65640;43.154;25.658;2023-02-22T17:27:11;56.22;;;24.60;;
76712;SDS011;65640;43.154;25.658;2023-02-22T17:29:36;58.15;;;25.10;;
76712;SDS011;65640;43.154;25.658;2023-02-22T17:32:02;59.92;;;23.73;;
76712;SDS011;65640;43.154;25.658;2023-02-22T17:34:27;50.88;;;24.02;;
76712;SDS011;65640;43.154;25.658;2023-02-22T17:36:53;87.30;;;38.90;;
76712;SDS011;65640;43.154;25.658;2023-02-22T17:39:19;57.80;;;24.60;;
76712;SDS011;65640;43.154;25.658;2023-02-22T17:41:44;57.25;;;27.58;;
76712;SDS011;65640;43.154;25.658;2023-02-22T17:44:10;42.63;;;21.20;;
76712;SDS011;65640;43.154;25.658;2023-02-22T17:46:36;59.30;;;24.30;;
76712;SDS011;65640;43.154;25.658;2023-02-22T17:49:04;81.38;;;32.65;;
76712;SDS011;65640;43.154;25.658;2023-02-22T17:51:30;100.60;;;40.05;;
76712;SDS011;65640;43.154;25.658;2023-02-22T17:53:56;87.70;;;32.75;;
76712;SDS011;65640;43.154;25.658;2023-02-22T17:56:21;82.90;;;30.02;;
76712;SDS011;65640;43.154;25.658;2023-02-22T17:58:48;52.78;;;21.10;;
76712;SDS011;65640;43.154;25.658;2023-02-22T18:01:27;45.30;;;17.35;;
76712;SDS011;65640;43.154;25.658;2023-02-22T18:03:55;33.83;;;16.38;;